sensor_id;sensor_type;location;lat;lon;timestamp;P1;durP1;ratioP1;P2;durP2;ratioP2
10963;SDS011;5534;48.784;9.190;2023-01-24T00:00:01;12.63;;;9.07;;
10963;SDS011;5534;48.784;9.190;2023-01-24T00:02:28;17.10;;;10.53;;
10963;SDS011;5534;48.784;9.190;2023-01-24T00:04:54;16.17;;;9.83;;
10963;SDS011;5534;48.784;9.190;2023-01-24T00:07:21;16.07;;;9.80;;
10963;SDS011;5534;48.784;9.190;2023-01-24T00:09:47;16.10;;;10.37;;
10963;SDS011;5534;48.784;9.190;2023-01-24T00:12:13;17.27;;;10.20;;
10963;SDS011;5534;48.784;9.190;2023-01-24T00:14:38;12.50;;;9.00;;
10963;SDS011;5534;48.784;9.190;2023-01-24T00:17:04;16.83;;;10.67;;
10963;SDS011;5534;48.784;9.190;2023-01-24T00:19:30;16.73;;;9.87;;
10963;SDS011;5534;48.784;9.190;2023-01-24T00:21:55;15.27;;;10.33;;
10963;SDS011;5534;48.784;9.190;2023-01-24T00:24:21;13.93;;;9.37;;
10963;SDS011;5534;48.784;9.190;2023-01-24T00:26:48;12.70;;;8.57;;
10963;SDS011;5534;48.784;9.190;2023-01-24T00:29:14;14.43;;;9.23;;
10963;SDS011;5534;48.784;9.190;2023-01-24T00:31:39;14.03;;;10.00;;
10963;SDS011;5534;48.784;9.190;2023-01-24T00:34:05;14.50;;;9.90;;
10963;SDS011;5534;48.784;9.190;2023-01-24T00:36:31;14.87;;;9.53;;
10963;SDS011;5534;48.784;9.190;2023-01-24T00:38:57;15.10;;;9.40;;
10963;SDS011;5534;48.784;9.190;2023-01-24T00:41:22;13.37;;;8.53;;
10963;SDS011;5534;48.784;9.190;2023-01-24T00:43:48;12.67;;;8.97;;
10963;SDS011;5534;48.784;9.190;2023-01-24T00:46:14;13.83;;;8.87;;
10963;SDS011;5534;48.784;9.190;2023-01-24T00:48:39;14.73;;;9.27;;
10963;SDS011;5534;48.784;9.190;2023-01-24T00:51:05;13.00;;;8.83;;
10963;SDS011;5534;48.784;9.190;2023-01-24T00:53:31;12.50;;;8.20;;
10963;SDS011;5534;48.784;9.190;2023-01-24T00:55:57;14.80;;;9.13;;
10963;SDS011;5534;48.784;9.190;2023-01-24T00:58:22;9.30;;;7.53;;
10963;SDS011;5534;48.784;9.190;2023-01-24T01:00:48;12.57;;;8.07;;
10963;SDS011;5534;48.784;9.190;2023-01-24T01:03:15;11.77;;;8.37;;
10963;SDS011;5534;48.784;9.190;2023-01-24T01:05:43;12.77;;;8.57;;
10963;SDS011;5534;48.784;9.190;2023-01-24T01:08:09;13.87;;;8.10;;
10963;SDS011;5534;48.784;9.190;2023-01-24T01:10:35;10.33;;;7.93;;
10963;SDS011;5534;48.784;9.190;2023-01-24T01:13:02;14.20;;;9.23;;
10963;SDS011;5534;48.784;9.190;2023-01-24T01:15:29;12.10;;;8.40;;
10963;SDS011;5534;48.784;9.190;2023-01-24T01:17:56;12.80;;;8.63;;
10963;SDS011;5534;48.784;9.190;2023-01-24T01:20:23;13.40;;;7.83;;
10963;SDS011;5534;48.784;9.190;2023-01-24T01:22:48;12.20;;;7.47;;
10963;SDS011;5534;48.784;9.190;2023-01-24T01:25:14;12.87;;;8.97;;
10963;SDS011;5534;48.784;9.190;2023-01-24T01:27:40;13.83;;;8.43;;
10963;SDS011;5534;48.784;9.190;2023-01-24T01:30:06;12.87;;;8.23;;
10963;SDS011;5534;48.784;9.190;2023-01-24T01:32:32;11.63;;;8.30;;
10963;SDS011;5534;48.784;9.190;2023-01-24T01:34:58;11.87;;;8.10;;
10963;SDS011;5534;48.784;9.190;2023-01-24T01:37:24;11.80;;;8.40;;
10963;SDS011;5534;48.784;9.190;2023-01-24T01:39:50;12.57;;;7.87;;
10963;SDS011;5534;48.784;9.190;2023-01-24T01:42:16;10.87;;;7.47;;
10963;SDS011;5534;48.784;9.190;2023-01-24T01:44:42;11.87;;;7.60;;
10963;SDS011;5534;48.784;9.190;2023-01-24T01:50:03;12.90;;;8.20;;
10963;SDS011;5534;48.784;9.190;2023-01-24T01:52:42;14.13;;;8.90;;
10963;SDS011;5534;48.784;9.190;2023-01-24T01:55:13;13.33;;;8.37;;
10963;SDS011;5534;48.784;9.190;2023-01-24T01:57:48;11.87;;;7.83;;
10963;SDS011;5534;48.784;9.190;2023-01-24T02:00:18;14.60;;;8.97;;
10963;SDS011;5534;48.784;9.190;2023-01-24T02:02:47;15.43;;;9.23;;
10963;SDS011;5534;48.784;9.190;2023-01-24T02:05:16;13.83;;;8.80;;
10963;SDS011;5534;48.784;9.190;2023-01-24T02:07:47;11.83;;;8.20;;
10963;SDS011;5534;48.784;9.190;2023-01-24T02:10:21;12.17;;;8.10;;
10963;SDS011;5534;48.784;9.190;2023-01-24T02:12:49;11.30;;;7.80;;
10963;SDS011;5534;48.784;9.190;2023-01-24T02:15:19;13.50;;;8.83;;
10963;SDS011;5534;48.784;9.190;2023-01-24T02:18:09;11.27;;;7.70;;
10963;SDS011;5534;48.784;9.190;2023-01-24T02:20:39;13.73;;;8.57;;
10963;SDS011;5534;48.784;9.190;2023-01-24T02:25:59;13.37;;;8.30;;
10963;SDS011;5534;48.784;9.190;2023-01-24T02:28:30;11.83;;;7.40;;
10963;SDS011;5534;48.784;9.190;2023-01-24T02:30:57;13.07;;;8.43;;
10963;SDS011;5534;48.784;9.190;2023-01-24T02:33:23;13.43;;;8.30;;
10963;SDS011;5534;48.784;9.190;2023-01-24T02:35:49;13.87;;;8.37;;
10963;SDS011;5534;48.784;9.190;2023-01-24T02:38:22;11.27;;;7.90;;
10963;SDS011;5534;48.784;9.190;2023-01-24T02:40:53;12.63;;;8.23;;
10963;SDS011;5534;48.784;9.190;2023-01-24T02:43:22;12.27;;;8.40;;
10963;SDS011;5534;48.784;9.190;2023-01-24T02:45:52;12.23;;;7.87;;
10963;SDS011;5534;48.784;9.190;2023-01-24T02:48:17;11.77;;;7.97;;
10963;SDS011;5534;48.784;9.190;2023-01-24T02:50:43;14.60;;;8.97;;
10963;SDS011;5534;48.784;9.190;2023-01-24T02:53:29;13.57;;;8.40;;
10963;SDS011;5534;48.784;9.190;2023-01-24T02:55:55;12.70;;;7.87;;
10963;SDS011;5534;48.784;9.190;2023-01-24T02:58:43;12.63;;;8.33;;
10963;SDS011;5534;48.784;9.190;2023-01-24T03:01:09;11.40;;;8.00;;
10963;SDS011;5534;48.784;9.190;2023-01-24T03:03:36;12.10;;;8.30;;
10963;SDS011;5534;48.784;9.190;2023-01-24T03:06:02;14.63;;;9.30;;
10963;SDS011;5534;48.784;9.190;2023-01-24T03:08:29;14.63;;;9.07;;
10963;SDS011;5534;48.784;9.190;2023-01-24T03:10:56;12.37;;;9.00;;
10963;SDS011;5534;48.784;9.190;2023-01-24T03:13:23;12.33;;;8.53;;
10963;SDS011;5534;48.784;9.190;2023-01-24T03:16:08;12.07;;;8.03;;
10963;SDS011;5534;48.784;9.190;2023-01-24T03:18:53;14.10;;;8.57;;
10963;SDS011;5534;48.784;9.190;2023-01-24T03:21:38;13.67;;;7.90;;
10963;SDS011;5534;48.784;9.190;2023-01-24T03:24:23;12.77;;;8.43;;
10963;SDS011;5534;48.784;9.190;2023-01-24T03:27:09;12.13;;;8.03;;
10963;SDS011;5534;48.784;9.190;2023-01-24T03:29:54;12.53;;;8.07;;
10963;SDS011;5534;48.784;9.190;2023-01-24T03:32:38;14.00;;;8.90;;
10963;SDS011;5534;48.784;9.190;2023-01-24T03:35:23;11.13;;;8.00;;
10963;SDS011;5534;48.784;9.190;2023-01-24T03:37:48;12.17;;;8.20;;
10963;SDS011;5534;48.784;9.190;2023-01-24T03:40:33;13.37;;;8.97;;
10963;SDS011;5534;48.784;9.190;2023-01-24T03:43:00;13.00;;;8.50;;
10963;SDS011;5534;48.784;9.190;2023-01-24T03:45:27;13.87;;;9.13;;
10963;SDS011;5534;48.784;9.190;2023-01-24T03:47:59;13.40;;;8.47;;
10963;SDS011;5534;48.784;9.190;2023-01-24T03:50:27;13.20;;;8.53;;
10963;SDS011;5534;48.784;9.190;2023-01-24T03:53:13;13.60;;;8.53;;
10963;SDS011;5534;48.784;9.190;2023-01-24T03:55:40;14.43;;;9.27;;
10963;SDS011;5534;48.784;9.190;2023-01-24T03:58:06;12.57;;;8.33;;
10963;SDS011;5534;48.784;9.190;2023-01-24T04:00:33;15.33;;;8.57;;
10963;SDS011;5534;48.784;9.190;2023-01-24T04:03:00;13.93;;;9.13;;
10963;SDS011;5534;48.784;9.190;2023-01-24T04:05:26;13.27;;;8.73;;
10963;SDS011;5534;48.784;9.190;2023-01-24T04:07:53;16.23;;;9.30;;
10963;SDS011;5534;48.784;9.190;2023-01-24T04:10:19;15.33;;;9.23;;
10963;SDS011;5534;48.784;9.190;2023-01-24T04:12:45;16.47;;;9.43;;
10963;SDS011;5534;48.784;9.190;2023-01-24T04:15:15;17.47;;;9.87;;
10963;SDS011;5534;48.784;9.190;2023-01-24T04:17:46;16.67;;;9.40;;
10963;SDS011;5534;48.784;9.190;2023-01-24T04:20:13;15.17;;;10.03;;
10963;SDS011;5534;48.784;9.190;2023-01-24T04:22:40;16.73;;;9.77;;
10963;SDS011;5534;48.784;9.190;2023-01-24T04:25:06;13.90;;;9.63;;
10963;SDS011;5534;48.784;9.190;2023-01-24T04:27:32;14.00;;;9.27;;
10963;SDS011;5534;48.784;9.190;2023-01-24T04:29:58;16.60;;;9.30;;
10963;SDS011;5534;48.784;9.190;2023-01-24T04:32:24;15.07;;;9.80;;
10963;SDS011;5534;48.784;9.190;2023-01-24T04:34:50;14.00;;;9.33;;
10963;SDS011;5534;48.784;9.190;2023-01-24T04:37:15;15.60;;;9.40;;
10963;SDS011;5534;48.784;9.190;2023-01-24T04:39:41;14.10;;;9.33;;
10963;SDS011;5534;48.784;9.190;2023-01-24T04:42:07;13.53;;;9.20;;
10963;SDS011;5534;48.784;9.190;2023-01-24T04:44:32;14.80;;;9.10;;
10963;SDS011;5534;48.784;9.190;2023-01-24T04:46:59;15.40;;;9.57;;
10963;SDS011;5534;48.784;9.190;2023-01-24T04:49:25;14.77;;;9.00;;
10963;SDS011;5534;48.784;9.190;2023-01-24T04:51:50;14.13;;;8.83;;
10963;SDS011;5534;48.784;9.190;2023-01-24T04:54:16;16.47;;;9.23;;
10963;SDS011;5534;48.784;9.190;2023-01-24T04:56:43;16.63;;;10.43;;
10963;SDS011;5534;48.784;9.190;2023-01-24T04:59:10;17.10;;;9.53;;
10963;SDS011;5534;48.784;9.190;2023-01-24T05:01:37;15.47;;;9.07;;
10963;SDS011;5534;48.784;9.190;2023-01-24T05:04:03;14.90;;;9.33;;
10963;SDS011;5534;48.784;9.190;2023-01-24T05:06:30;15.07;;;9.50;;
10963;SDS011;5534;48.784;9.190;2023-01-24T05:08:57;20.77;;;11.37;;
10963;SDS011;5534;48.784;9.190;2023-01-24T05:11:23;20.90;;;9.87;;
10963;SDS011;5534;48.784;9.190;2023-01-24T05:13:50;15.73;;;9.40;;
10963;SDS011;5534;48.784;9.190;2023-01-24T05:16:16;18.13;;;9.93;;
10963;SDS011;5534;48.784;9.190;2023-01-24T05:18:43;15.00;;;9.73;;
10963;SDS011;5534;48.784;9.190;2023-01-24T05:21:10;15.67;;;9.10;;
10963;SDS011;5534;48.784;9.190;2023-01-24T05:23:37;15.93;;;10.10;;
10963;SDS011;5534;48.784;9.190;2023-01-24T05:26:03;14.10;;;9.23;;
10963;SDS011;5534;48.784;9.190;2023-01-24T05:28:29;14.13;;;9.00;;
10963;SDS011;5534;48.784;9.190;2023-01-24T05:30:58;14.77;;;9.67;;
10963;SDS011;5534;48.784;9.190;2023-01-24T05:33:27;14.33;;;9.23;;
10963;SDS011;5534;48.784;9.190;2023-01-24T05:36:00;16.37;;;9.80;;
10963;SDS011;5534;48.784;9.190;2023-01-24T05:38:27;14.87;;;9.27;;
10963;SDS011;5534;48.784;9.190;2023-01-24T05:40:53;18.03;;;10.00;;
10963;SDS011;5534;48.784;9.190;2023-01-24T05:43:19;15.50;;;9.73;;
10963;SDS011;5534;48.784;9.190;2023-01-24T05:45:44;16.53;;;9.93;;
10963;SDS011;5534;48.784;9.190;2023-01-24T05:48:10;16.87;;;9.97;;
10963;SDS011;5534;48.784;9.190;2023-01-24T05:50:36;18.07;;;10.20;;
10963;SDS011;5534;48.784;9.190;2023-01-24T05:53:02;17.77;;;9.90;;
10963;SDS011;5534;48.784;9.190;2023-01-24T05:55:28;16.07;;;10.20;;
10963;SDS011;5534;48.784;9.190;2023-01-24T05:57:54;16.43;;;9.90;;
10963;SDS011;5534;48.784;9.190;2023-01-24T06:00:20;17.93;;;10.23;;
10963;SDS011;5534;48.784;9.190;2023-01-24T06:02:46;14.83;;;9.87;;
10963;SDS011;5534;48.784;9.190;2023-01-24T06:05:11;14.17;;;9.40;;
10963;SDS011;5534;48.784;9.190;2023-01-24T06:07:37;18.57;;;10.93;;
10963;SDS011;5534;48.784;9.190;2023-01-24T06:10:03;16.00;;;10.43;;
10963;SDS011;5534;48.784;9.190;2023-01-24T06:12:30;18.87;;;10.07;;
10963;SDS011;5534;48.784;9.190;2023-01-24T06:14:57;18.00;;;11.23;;
10963;SDS011;5534;48.784;9.190;2023-01-24T06:17:23;18.20;;;11.30;;
10963;SDS011;5534;48.784;9.190;2023-01-24T06:19:49;15.80;;;9.83;;
10963;SDS011;5534;48.784;9.190;2023-01-24T06:24:50;17.77;;;10.63;;
10963;SDS011;5534;48.784;9.190;2023-01-24T06:27:16;16.97;;;9.87;;
10963;SDS011;5534;48.784;9.190;2023-01-24T06:29:42;19.70;;;11.67;;
10963;SDS011;5534;48.784;9.190;2023-01-24T06:32:12;16.60;;;10.33;;
10963;SDS011;5534;48.784;9.190;2023-01-24T06:37:49;17.20;;;10.17;;
10963;SDS011;5534;48.784;9.190;2023-01-24T06:40:20;15.73;;;10.33;;
10963;SDS011;5534;48.784;9.190;2023-01-24T06:42:51;18.10;;;10.50;;
10963;SDS011;5534;48.784;9.190;2023-01-24T06:45:18;19.90;;;10.87;;
10963;SDS011;5534;48.784;9.190;2023-01-24T06:47:44;18.00;;;11.07;;
10963;SDS011;5534;48.784;9.190;2023-01-24T06:50:14;16.27;;;10.60;;
10963;SDS011;5534;48.784;9.190;2023-01-24T06:52:45;17.20;;;11.10;;
10963;SDS011;5534;48.784;9.190;2023-01-24T06:55:12;19.37;;;11.33;;
10963;SDS011;5534;48.784;9.190;2023-01-24T06:57:38;19.97;;;11.37;;
10963;SDS011;5534;48.784;9.190;2023-01-24T07:00:04;18.23;;;11.33;;
10963;SDS011;5534;48.784;9.190;2023-01-24T07:02:30;20.70;;;11.80;;
10963;SDS011;5534;48.784;9.190;2023-01-24T07:04:56;18.23;;;10.80;;
10963;SDS011;5534;48.784;9.190;2023-01-24T07:07:22;17.80;;;10.73;;
10963;SDS011;5534;48.784;9.190;2023-01-24T07:09:48;19.10;;;11.03;;
10963;SDS011;5534;48.784;9.190;2023-01-24T07:12:15;18.57;;;10.63;;
10963;SDS011;5534;48.784;9.190;2023-01-24T07:14:41;17.10;;;11.00;;
10963;SDS011;5534;48.784;9.190;2023-01-24T07:17:07;18.13;;;10.23;;
10963;SDS011;5534;48.784;9.190;2023-01-24T07:19:33;18.23;;;10.83;;
10963;SDS011;5534;48.784;9.190;2023-01-24T07:21:59;18.90;;;11.00;;
10963;SDS011;5534;48.784;9.190;2023-01-24T07:24:26;22.57;;;11.53;;
10963;SDS011;5534;48.784;9.190;2023-01-24T07:26:54;17.63;;;10.60;;
10963;SDS011;5534;48.784;9.190;2023-01-24T07:29:21;15.43;;;9.87;;
10963;SDS011;5534;48.784;9.190;2023-01-24T07:31:47;18.07;;;10.53;;
10963;SDS011;5534;48.784;9.190;2023-01-24T07:34:14;15.30;;;10.23;;
10963;SDS011;5534;48.784;9.190;2023-01-24T07:36:41;15.70;;;9.93;;
10963;SDS011;5534;48.784;9.190;2023-01-24T07:39:07;20.43;;;11.23;;
10963;SDS011;5534;48.784;9.190;2023-01-24T07:41:34;15.40;;;9.23;;
10963;SDS011;5534;48.784;9.190;2023-01-24T07:44:02;18.53;;;10.63;;
10963;SDS011;5534;48.784;9.190;2023-01-24T07:46:30;17.33;;;9.53;;
10963;SDS011;5534;48.784;9.190;2023-01-24T07:49:00;16.33;;;10.27;;
10963;SDS011;5534;48.784;9.190;2023-01-24T07:51:27;15.43;;;9.77;;
10963;SDS011;5534;48.784;9.190;2023-01-24T07:53:53;13.60;;;8.83;;
10963;SDS011;5534;48.784;9.190;2023-01-24T07:56:19;14.53;;;9.73;;
10963;SDS011;5534;48.784;9.190;2023-01-24T07:58:46;18.87;;;10.37;;
10963;SDS011;5534;48.784;9.190;2023-01-24T08:01:15;20.00;;;11.17;;
10963;SDS011;5534;48.784;9.190;2023-01-24T08:03:42;19.50;;;10.47;;
10963;SDS011;5534;48.784;9.190;2023-01-24T08:06:08;17.83;;;10.63;;
10963;SDS011;5534;48.784;9.190;2023-01-24T08:08:34;16.83;;;10.27;;
10963;SDS011;5534;48.784;9.190;2023-01-24T08:10:59;16.63;;;10.40;;
10963;SDS011;5534;48.784;9.190;2023-01-24T08:13:25;19.50;;;10.97;;
10963;SDS011;5534;48.784;9.190;2023-01-24T08:15:51;18.47;;;10.03;;
10963;SDS011;5534;48.784;9.190;2023-01-24T08:18:16;18.37;;;10.23;;
10963;SDS011;5534;48.784;9.190;2023-01-24T08:20:45;15.77;;;9.63;;
10963;SDS011;5534;48.784;9.190;2023-01-24T08:23:12;16.63;;;9.47;;
10963;SDS011;5534;48.784;9.190;2023-01-24T08:25:38;16.67;;;10.07;;
10963;SDS011;5534;48.784;9.190;2023-01-24T08:28:03;15.90;;;9.90;;
10963;SDS011;5534;48.784;9.190;2023-01-24T08:30:29;15.03;;;9.57;;
10963;SDS011;5534;48.784;9.190;2023-01-24T08:33:02;17.60;;;10.30;;
10963;SDS011;5534;48.784;9.190;2023-01-24T08:35:31;18.93;;;10.53;;
10963;SDS011;5534;48.784;9.190;2023-01-24T08:37:58;14.97;;;8.63;;
10963;SDS011;5534;48.784;9.190;2023-01-24T08:40:25;14.57;;;8.93;;
10963;SDS011;5534;48.784;9.190;2023-01-24T08:42:51;16.53;;;10.07;;
10963;SDS011;5534;48.784;9.190;2023-01-24T08:45:18;16.13;;;9.23;;
10963;SDS011;5534;48.784;9.190;2023-01-24T08:47:50;18.03;;;10.50;;
10963;SDS011;5534;48.784;9.190;2023-01-24T08:50:16;14.83;;;9.53;;
10963;SDS011;5534;48.784;9.190;2023-01-24T08:52:44;15.70;;;9.63;;
10963;SDS011;5534;48.784;9.190;2023-01-24T08:55:11;16.53;;;9.67;;
10963;SDS011;5534;48.784;9.190;2023-01-24T08:57:37;18.03;;;10.17;;
10963;SDS011;5534;48.784;9.190;2023-01-24T09:00:03;14.23;;;9.33;;
10963;SDS011;5534;48.784;9.190;2023-01-24T09:02:29;18.20;;;10.40;;
10963;SDS011;5534;48.784;9.190;2023-01-24T09:04:57;17.47;;;9.67;;
10963;SDS011;5534;48.784;9.190;2023-01-24T09:07:23;16.30;;;9.47;;
10963;SDS011;5534;48.784;9.190;2023-01-24T09:09:49;19.07;;;10.80;;
10963;SDS011;5534;48.784;9.190;2023-01-24T09:12:15;18.43;;;10.30;;
10963;SDS011;5534;48.784;9.190;2023-01-24T09:14:41;16.60;;;8.83;;
10963;SDS011;5534;48.784;9.190;2023-01-24T09:17:06;16.20;;;9.73;;
10963;SDS011;5534;48.784;9.190;2023-01-24T09:19:32;17.00;;;9.77;;
10963;SDS011;5534;48.784;9.190;2023-01-24T09:21:58;16.97;;;10.03;;
10963;SDS011;5534;48.784;9.190;2023-01-24T09:24:25;16.90;;;10.67;;
10963;SDS011;5534;48.784;9.190;2023-01-24T09:26:51;15.47;;;9.40;;
10963;SDS011;5534;48.784;9.190;2023-01-24T09:29:17;16.70;;;9.83;;
10963;SDS011;5534;48.784;9.190;2023-01-24T09:31:42;14.00;;;9.07;;
10963;SDS011;5534;48.784;9.190;2023-01-24T09:34:08;14.43;;;8.93;;
10963;SDS011;5534;48.784;9.190;2023-01-24T09:36:34;16.03;;;9.60;;
10963;SDS011;5534;48.784;9.190;2023-01-24T09:39:00;15.77;;;9.50;;
10963;SDS011;5534;48.784;9.190;2023-01-24T09:41:48;16.93;;;9.13;;
10963;SDS011;5534;48.784;9.190;2023-01-24T09:44:43;13.77;;;8.20;;
10963;SDS011;5534;48.784;9.190;2023-01-24T09:47:17;17.07;;;8.47;;
10963;SDS011;5534;48.784;9.190;2023-01-24T09:50:04;15.50;;;9.37;;
10963;SDS011;5534;48.784;9.190;2023-01-24T09:52:41;16.00;;;9.37;;
10963;SDS011;5534;48.784;9.190;2023-01-24T10:00:29;13.43;;;7.97;;
10963;SDS011;5534;48.784;9.190;2023-01-24T10:02:58;16.03;;;9.60;;
10963;SDS011;5534;48.784;9.190;2023-01-24T10:05:28;15.93;;;9.40;;
10963;SDS011;5534;48.784;9.190;2023-01-24T10:08:10;14.87;;;8.87;;
10963;SDS011;5534;48.784;9.190;2023-01-24T10:10:42;15.47;;;9.23;;
10963;SDS011;5534;48.784;9.190;2023-01-24T10:13:17;16.63;;;8.30;;
10963;SDS011;5534;48.784;9.190;2023-01-24T10:24:24;12.73;;;7.63;;
10963;SDS011;5534;48.784;9.190;2023-01-24T10:26:55;12.63;;;7.60;;
10963;SDS011;5534;48.784;9.190;2023-01-24T10:29:22;13.47;;;7.63;;
10963;SDS011;5534;48.784;9.190;2023-01-24T10:32:05;13.20;;;7.97;;
10963;SDS011;5534;48.784;9.190;2023-01-24T10:34:36;14.93;;;8.87;;
10963;SDS011;5534;48.784;9.190;2023-01-24T10:39:35;12.20;;;7.80;;
10963;SDS011;5534;48.784;9.190;2023-01-24T10:42:01;11.50;;;7.87;;
10963;SDS011;5534;48.784;9.190;2023-01-24T10:44:34;12.43;;;7.37;;
10963;SDS011;5534;48.784;9.190;2023-01-24T10:50:07;9.93;;;6.40;;
10963;SDS011;5534;48.784;9.190;2023-01-24T10:52:35;10.63;;;6.77;;
10963;SDS011;5534;48.784;9.190;2023-01-24T10:55:02;9.37;;;6.43;;
10963;SDS011;5534;48.784;9.190;2023-01-24T11:00:32;11.13;;;6.30;;
10963;SDS011;5534;48.784;9.190;2023-01-24T11:05:56;20.50;;;12.70;;
10963;SDS011;5534;48.784;9.190;2023-01-24T11:08:24;10.60;;;7.10;;
10963;SDS011;5534;48.784;9.190;2023-01-24T11:11:00;10.60;;;6.43;;
10963;SDS011;5534;48.784;9.190;2023-01-24T11:13:32;12.33;;;5.93;;
10963;SDS011;5534;48.784;9.190;2023-01-24T11:18:56;12.73;;;6.80;;
10963;SDS011;5534;48.784;9.190;2023-01-24T11:21:24;9.10;;;6.17;;
10963;SDS011;5534;48.784;9.190;2023-01-24T11:26:30;10.53;;;6.47;;
10963;SDS011;5534;48.784;9.190;2023-01-24T11:28:59;10.13;;;6.17;;
10963;SDS011;5534;48.784;9.190;2023-01-24T11:31:43;11.97;;;6.80;;
10963;SDS011;5534;48.784;9.190;2023-01-24T11:37:35;12.07;;;6.13;;
10963;SDS011;5534;48.784;9.190;2023-01-24T11:55:00;11.30;;;6.73;;
10963;SDS011;5534;48.784;9.190;2023-01-24T12:01:30;11.37;;;6.60;;
10963;SDS011;5534;48.784;9.190;2023-01-24T12:09:02;12.07;;;7.83;;
10963;SDS011;5534;48.784;9.190;2023-01-24T12:11:52;15.23;;;7.43;;
10963;SDS011;5534;48.784;9.190;2023-01-24T12:22:37;10.90;;;6.93;;
10963;SDS011;5534;48.784;9.190;2023-01-24T12:27:36;13.33;;;6.83;;
10963;SDS011;5534;48.784;9.190;2023-01-24T12:30:17;8.87;;;6.30;;
10963;SDS011;5534;48.784;9.190;2023-01-24T12:32:52;12.27;;;6.63;;
10963;SDS011;5534;48.784;9.190;2023-01-24T12:35:28;10.27;;;7.10;;
10963;SDS011;5534;48.784;9.190;2023-01-24T12:38:05;11.43;;;6.87;;
10963;SDS011;5534;48.784;9.190;2023-01-24T12:46:24;16.87;;;8.40;;
10963;SDS011;5534;48.784;9.190;2023-01-24T12:54:32;10.53;;;7.30;;
10963;SDS011;5534;48.784;9.190;2023-01-24T12:57:13;12.17;;;6.37;;
10963;SDS011;5534;48.784;9.190;2023-01-24T13:00:21;8.77;;;5.77;;
10963;SDS011;5534;48.784;9.190;2023-01-24T13:03:03;11.23;;;7.43;;
10963;SDS011;5534;48.784;9.190;2023-01-24T13:06:09;12.07;;;6.50;;
10963;SDS011;5534;48.784;9.190;2023-01-24T13:11:46;8.80;;;5.97;;
10963;SDS011;5534;48.784;9.190;2023-01-24T13:14:17;11.30;;;6.97;;
10963;SDS011;5534;48.784;9.190;2023-01-24T13:19:59;10.70;;;6.47;;
10963;SDS011;5534;48.784;9.190;2023-01-24T13:22:31;10.50;;;6.17;;
10963;SDS011;5534;48.784;9.190;2023-01-24T13:25:34;13.63;;;6.03;;
10963;SDS011;5534;48.784;9.190;2023-01-24T13:28:15;8.40;;;5.67;;
10963;SDS011;5534;48.784;9.190;2023-01-24T13:31:08;9.37;;;5.43;;
10963;SDS011;5534;48.784;9.190;2023-01-24T13:33:56;9.13;;;5.77;;
10963;SDS011;5534;48.784;9.190;2023-01-24T13:36:33;9.67;;;5.70;;
10963;SDS011;5534;48.784;9.190;2023-01-24T13:39:02;7.23;;;5.43;;
10963;SDS011;5534;48.784;9.190;2023-01-24T13:55:00;10.20;;;5.97;;
10963;SDS011;5534;48.784;9.190;2023-01-24T13:57:30;8.83;;;5.77;;
10963;SDS011;5534;48.784;9.190;2023-01-24T14:02:41;8.87;;;5.60;;
10963;SDS011;5534;48.784;9.190;2023-01-24T14:08:02;7.87;;;5.70;;
10963;SDS011;5534;48.784;9.190;2023-01-24T14:10:37;8.23;;;5.53;;
10963;SDS011;5534;48.784;9.190;2023-01-24T14:16:56;11.13;;;6.10;;
10963;SDS011;5534;48.784;9.190;2023-01-24T14:21:48;9.07;;;5.93;;
10963;SDS011;5534;48.784;9.190;2023-01-24T14:27:24;11.87;;;6.80;;
10963;SDS011;5534;48.784;9.190;2023-01-24T14:29:57;9.63;;;6.03;;
10963;SDS011;5534;48.784;9.190;2023-01-24T14:32:45;9.63;;;6.03;;
10963;SDS011;5534;48.784;9.190;2023-01-24T14:37:48;9.40;;;6.37;;
10963;SDS011;5534;48.784;9.190;2023-01-24T14:40:20;8.53;;;6.13;;
10963;SDS011;5534;48.784;9.190;2023-01-24T14:42:51;9.53;;;5.80;;
10963;SDS011;5534;48.784;9.190;2023-01-24T14:45:26;10.63;;;6.43;;
10963;SDS011;5534;48.784;9.190;2023-01-24T14:47:53;10.67;;;6.50;;
10963;SDS011;5534;48.784;9.190;2023-01-24T14:50:22;10.17;;;6.20;;
10963;SDS011;5534;48.784;9.190;2023-01-24T14:52:54;11.87;;;6.27;;
10963;SDS011;5534;48.784;9.190;2023-01-24T14:57:52;10.53;;;6.03;;
10963;SDS011;5534;48.784;9.190;2023-01-24T15:00:19;11.73;;;6.10;;
10963;SDS011;5534;48.784;9.190;2023-01-24T15:02:50;10.73;;;6.40;;
10963;SDS011;5534;48.784;9.190;2023-01-24T15:05:23;10.50;;;6.60;;
10963;SDS011;5534;48.784;9.190;2023-01-24T15:07:54;9.87;;;6.10;;
10963;SDS011;5534;48.784;9.190;2023-01-24T15:10:25;9.03;;;5.67;;
10963;SDS011;5534;48.784;9.190;2023-01-24T15:12:58;11.57;;;6.40;;
10963;SDS011;5534;48.784;9.190;2023-01-24T15:15:27;8.70;;;5.80;;
10963;SDS011;5534;48.784;9.190;2023-01-24T15:17:56;9.40;;;6.90;;
10963;SDS011;5534;48.784;9.190;2023-01-24T15:20:46;10.13;;;6.70;;
10963;SDS011;5534;48.784;9.190;2023-01-24T15:23:13;7.20;;;5.53;;
10963;SDS011;5534;48.784;9.190;2023-01-24T15:25:45;9.40;;;6.60;;
10963;SDS011;5534;48.784;9.190;2023-01-24T15:28:18;10.40;;;5.90;;
10963;SDS011;5534;48.784;9.190;2023-01-24T15:30:53;11.17;;;6.57;;
10963;SDS011;5534;48.784;9.190;2023-01-24T15:33:22;10.27;;;6.40;;
10963;SDS011;5534;48.784;9.190;2023-01-24T15:35:49;10.93;;;6.30;;
10963;SDS011;5534;48.784;9.190;2023-01-24T15:38:21;8.27;;;5.97;;
10963;SDS011;5534;48.784;9.190;2023-01-24T15:43:49;10.47;;;7.03;;
10963;SDS011;5534;48.784;9.190;2023-01-24T15:46:28;12.50;;;7.27;;
10963;SDS011;5534;48.784;9.190;2023-01-24T15:54:35;11.73;;;6.73;;
10963;SDS011;5534;48.784;9.190;2023-01-24T15:57:06;11.57;;;7.70;;
10963;SDS011;5534;48.784;9.190;2023-01-24T15:59:40;13.40;;;7.93;;
10963;SDS011;5534;48.784;9.190;2023-01-24T16:02:12;11.37;;;7.80;;
10963;SDS011;5534;48.784;9.190;2023-01-24T16:04:38;11.47;;;7.03;;
10963;SDS011;5534;48.784;9.190;2023-01-24T16:07:05;12.37;;;8.23;;
10963;SDS011;5534;48.784;9.190;2023-01-24T16:09:33;12.30;;;7.30;;
10963;SDS011;5534;48.784;9.190;2023-01-24T16:11:59;11.53;;;7.27;;
10963;SDS011;5534;48.784;9.190;2023-01-24T16:14:26;11.53;;;6.87;;
10963;SDS011;5534;48.784;9.190;2023-01-24T16:16:53;11.70;;;7.53;;
10963;SDS011;5534;48.784;9.190;2023-01-24T16:19:22;14.63;;;8.80;;
10963;SDS011;5534;48.784;9.190;2023-01-24T16:21:49;14.00;;;8.20;;
10963;SDS011;5534;48.784;9.190;2023-01-24T16:24:15;13.13;;;7.60;;
10963;SDS011;5534;48.784;9.190;2023-01-24T16:26:45;13.40;;;8.50;;
10963;SDS011;5534;48.784;9.190;2023-01-24T16:29:15;13.43;;;8.60;;
10963;SDS011;5534;48.784;9.190;2023-01-24T16:31:43;14.33;;;7.83;;
10963;SDS011;5534;48.784;9.190;2023-01-24T16:34:09;11.47;;;7.67;;
10963;SDS011;5534;48.784;9.190;2023-01-24T16:36:35;12.33;;;7.87;;
10963;SDS011;5534;48.784;9.190;2023-01-24T16:39:02;11.57;;;8.23;;
10963;SDS011;5534;48.784;9.190;2023-01-24T16:41:29;13.50;;;8.07;;
10963;SDS011;5534;48.784;9.190;2023-01-24T16:43:55;13.63;;;8.00;;
10963;SDS011;5534;48.784;9.190;2023-01-24T16:46:21;15.03;;;8.10;;
10963;SDS011;5534;48.784;9.190;2023-01-24T16:48:47;21.53;;;12.33;;
10963;SDS011;5534;48.784;9.190;2023-01-24T16:51:14;13.77;;;8.83;;
10963;SDS011;5534;48.784;9.190;2023-01-24T16:53:41;14.20;;;7.67;;
10963;SDS011;5534;48.784;9.190;2023-01-24T16:56:07;14.13;;;8.07;;
10963;SDS011;5534;48.784;9.190;2023-01-24T16:58:34;18.80;;;8.70;;
10963;SDS011;5534;48.784;9.190;2023-01-24T17:01:01;14.07;;;8.57;;
10963;SDS011;5534;48.784;9.190;2023-01-24T17:03:33;16.83;;;8.67;;
10963;SDS011;5534;48.784;9.190;2023-01-24T17:05:59;16.47;;;8.73;;
10963;SDS011;5534;48.784;9.190;2023-01-24T17:08:26;18.53;;;8.87;;
10963;SDS011;5534;48.784;9.190;2023-01-24T17:11:01;15.67;;;9.77;;
10963;SDS011;5534;48.784;9.190;2023-01-24T17:13:27;15.50;;;9.93;;
10963;SDS011;5534;48.784;9.190;2023-01-24T17:15:53;18.37;;;10.17;;
10963;SDS011;5534;48.784;9.190;2023-01-24T17:18:19;19.03;;;8.87;;